Time;durP1;ratioP1;P1;durP2;ratioP2;P2;SDS_P1;SDS_P2;PMS_P1;PMS_P2;Temp;Humidity;BMP_temperature;BMP_pressure;BME280_temperature;BME280_humidity;BME280_pressure;Samples;Min_cycle;Max_cycle;Signal;HPM_P1;HPM_P2
2023/01/21 00:00:10;;;;;;;15.20;11.63;;;;;;;;;;4949753;28;20233;-87
2023/01/21 00:02:36;;;;;;;15.80;12.03;;;;;;;;;;4950570;28;20262;-87
2023/01/21 00:05:04;;;;;;;15.80;12.50;;;;;;;;;;4947089;28;20265;-86
2023/01/21 00:07:32;;;;;;;17.63;13.60;;;;;;;;;;4930950;28;20229;-88
2023/01/21 00:09:58;;;;;;;18.47;12.70;;;;;;;;;;4942760;28;20262;-88
2023/01/21 00:12:23;;;;;;;17.07;13.43;;;;;;;;;;4961540;28;20226;-87
2023/01/21 00:14:49;;;;;;;19.13;14.53;;;;;;;;;;4975985;28;20274;-87
2023/01/21 00:17:19;;;;;;;19.53;14.80;;;;;;;;;;4965472;28;20316;-88
2023/01/21 00:19:44;;;;;;;20.20;15.70;;;;;;;;;;4941378;28;20222;-87
2023/01/21 00:22:10;;;;;;;16.47;14.30;;;;;;;;;;4954076;28;20218;-88
2023/01/21 00:24:37;;;;;;;15.50;13.00;;;;;;;;;;4953001;28;20228;-87
2023/01/21 00:27:03;;;;;;;17.47;13.53;;;;;;;;;;4957061;28;20289;-88
2023/01/21 00:29:33;;;;;;;16.70;14.47;;;;;;;;;;4958143;28;20232;-88
2023/01/21 00:32:01;;;;;;;17.30;14.43;;;;;;;;;;4988590;28;20245;-87
2023/01/21 00:34:29;;;;;;;16.30;13.00;;;;;;;;;;4954449;28;20249;-86
2023/01/21 00:36:57;;;;;;;17.17;13.17;;;;;;;;;;4982029;28;20687;-88
2023/01/21 00:39:22;;;;;;;15.67;12.67;;;;;;;;;;4955351;28;20232;-87
2023/01/21 00:41:48;;;;;;;16.77;12.73;;;;;;;;;;4934148;28;20701;-90
2023/01/21 00:44:15;;;;;;;16.50;13.23;;;;;;;;;;4959332;28;20214;-87
2023/01/21 00:46:40;;;;;;;18.20;13.23;;;;;;;;;;4986522;28;20636;-89
2023/01/21 00:49:06;;;;;;;16.97;12.90;;;;;;;;;;4961508;28;20225;-88
2023/01/21 00:51:46;;;;;;;16.47;13.97;;;;;;;;;;4944722;28;20230;-87
2023/01/21 00:54:14;;;;;;;20.43;14.63;;;;;;;;;;4962766;28;20240;-88
2023/01/21 00:56:39;;;;;;;16.10;13.60;;;;;;;;;;4954117;28;20227;-87
2023/01/21 00:59:07;;;;;;;14.83;12.53;;;;;;;;;;4947205;28;20213;-87
2023/01/21 01:01:37;;;;;;;17.60;13.33;;;;;;;;;;4930748;28;20765;-87
2023/01/21 01:04:09;;;;;;;15.07;12.63;;;;;;;;;;4975839;28;20218;-88
2023/01/21 01:06:35;;;;;;;15.87;13.37;;;;;;;;;;4956822;28;20316;-88
2023/01/21 01:09:01;;;;;;;15.57;13.47;;;;;;;;;;4991267;28;20244;-87
2023/01/21 01:11:29;;;;;;;16.77;13.93;;;;;;;;;;4962468;28;20241;-87
2023/01/21 01:13:55;;;;;;;17.80;13.47;;;;;;;;;;4954592;28;20706;-89
2023/01/21 01:16:23;;;;;;;17.53;13.80;;;;;;;;;;4975296;28;20253;-87
2023/01/21 01:18:51;;;;;;;16.80;14.27;;;;;;;;;;4960078;28;20226;-86
2023/01/21 01:21:20;;;;;;;19.83;14.77;;;;;;;;;;4985102;28;20250;-87
2023/01/21 01:23:50;;;;;;;17.27;14.17;;;;;;;;;;4966959;28;20231;-87
2023/01/21 01:26:17;;;;;;;16.33;13.67;;;;;;;;;;4975409;28;20308;-89
2023/01/21 01:28:44;;;;;;;15.07;13.10;;;;;;;;;;4958891;28;20317;-87
2023/01/21 01:31:11;;;;;;;18.03;14.37;;;;;;;;;;4979589;28;20222;-86
2023/01/21 01:33:39;;;;;;;18.53;13.80;;;;;;;;;;4930405;28;20226;-87
2023/01/21 01:36:10;;;;;;;17.37;13.50;;;;;;;;;;4964592;28;20249;-87
2023/01/21 01:38:35;;;;;;;16.47;13.23;;;;;;;;;;4958566;28;20317;-86
2023/01/21 01:41:03;;;;;;;15.00;12.60;;;;;;;;;;4927834;28;20693;-88
2023/01/21 01:43:56;;;;;;;16.43;13.53;;;;;;;;;;4952179;28;20309;-87
2023/01/21 01:46:23;;;;;;;15.07;13.47;;;;;;;;;;4979786;28;20205;-86
2023/01/21 01:48:58;;;;;;;17.70;14.90;;;;;;;;;;4950290;28;20284;-87
2023/01/21 01:51:37;;;;;;;19.67;14.30;;;;;;;;;;4948859;28;20222;-87
2023/01/21 01:54:03;;;;;;;15.23;13.07;;;;;;;;;;4949014;28;20225;-87
2023/01/21 01:56:31;;;;;;;17.23;14.97;;;;;;;;;;4964309;28;20226;-86
2023/01/21 01:58:56;;;;;;;14.93;12.90;;;;;;;;;;4944559;28;20237;-85
2023/01/21 02:01:22;;;;;;;16.97;15.00;;;;;;;;;;4973217;28;20242;-87
2023/01/21 02:03:55;;;;;;;18.63;14.70;;;;;;;;;;4986965;28;20615;-87
2023/01/21 02:06:21;;;;;;;16.87;13.70;;;;;;;;;;4960625;28;20226;-88
2023/01/21 02:08:46;;;;;;;16.93;13.87;;;;;;;;;;4956804;28;20234;-87
2023/01/21 02:11:13;;;;;;;16.67;14.60;;;;;;;;;;4942540;28;20218;-86
2023/01/21 02:13:41;;;;;;;18.03;13.73;;;;;;;;;;4959277;28;20219;-85
2023/01/21 02:16:12;;;;;;;14.80;13.13;;;;;;;;;;4985080;28;20232;-88
2023/01/21 02:18:59;;;;;;;15.43;13.60;;;;;;;;;;4945026;28;20231;-88
2023/01/21 02:21:43;;;;;;;15.23;13.47;;;;;;;;;;4962180;28;20226;-86
2023/01/21 02:24:20;;;;;;;17.47;13.10;;;;;;;;;;4965756;28;20288;-86
2023/01/21 02:27:03;;;;;;;16.97;14.30;;;;;;;;;;4962666;28;20696;-88
2023/01/21 02:29:44;;;;;;;15.37;13.73;;;;;;;;;;4972988;28;20313;-86
2023/01/21 02:32:24;;;;;;;18.13;14.10;;;;;;;;;;4955597;28;20230;-86
2023/01/21 02:34:52;;;;;;;17.53;14.33;;;;;;;;;;4976838;28;20264;-87
2023/01/21 02:37:39;;;;;;;14.93;12.63;;;;;;;;;;4957838;28;20318;-87
2023/01/21 02:40:04;;;;;;;14.90;13.40;;;;;;;;;;4941761;28;20230;-87
2023/01/21 02:42:42;;;;;;;16.17;13.90;;;;;;;;;;4974782;28;20714;-89
2023/01/21 02:45:20;;;;;;;16.27;13.03;;;;;;;;;;4971249;28;20218;-87
2023/01/21 02:48:13;;;;;;;15.87;13.27;;;;;;;;;;4970726;28;20257;-87
2023/01/21 02:50:49;;;;;;;15.70;13.70;;;;;;;;;;4958710;28;20256;-87
2023/01/21 02:53:37;;;;;;;19.67;16.00;;;;;;;;;;4940221;28;20242;-87
2023/01/21 02:56:10;;;;;;;21.97;14.97;;;;;;;;;;4964246;28;20372;-87
2023/01/21 02:58:37;;;;;;;19.40;15.20;;;;;;;;;;4976372;28;20710;-89
2023/01/21 03:01:15;;;;;;;18.00;15.03;;;;;;;;;;4926595;28;20226;-87
2023/01/21 03:04:15;;;;;;;19.57;13.83;;;;;;;;;;4965463;28;20241;-86
2023/01/21 03:06:54;;;;;;;15.97;13.20;;;;;;;;;;4990244;28;20250;-88
2023/01/21 03:09:27;;;;;;;18.10;14.53;;;;;;;;;;4983745;28;20215;-87
2023/01/21 03:12:02;;;;;;;17.33;14.33;;;;;;;;;;4951334;28;20241;-86
2023/01/21 03:17:21;;;;;;;17.30;14.63;;;;;;;;;;4980941;28;20236;-85
2023/01/21 03:20:09;;;;;;;18.90;15.07;;;;;;;;;;4943415;28;20295;-88
2023/01/21 03:22:34;;;;;;;18.47;15.30;;;;;;;;;;4958504;28;20246;-87
2023/01/21 03:25:03;;;;;;;18.87;15.87;;;;;;;;;;4959196;28;20265;-86
2023/01/21 03:27:29;;;;;;;19.87;16.20;;;;;;;;;;4969812;28;20304;-87
2023/01/21 03:30:03;;;;;;;20.33;16.37;;;;;;;;;;4960276;28;20286;-88
2023/01/21 03:32:30;;;;;;;17.27;15.23;;;;;;;;;;4932000;28;20249;-86
2023/01/21 03:34:55;;;;;;;20.43;16.50;;;;;;;;;;4944135;28;20233;-86
2023/01/21 03:37:32;;;;;;;20.67;17.10;;;;;;;;;;4949756;28;20229;-86
2023/01/21 03:40:04;;;;;;;19.60;16.50;;;;;;;;;;4947182;28;20228;-86
2023/01/21 03:42:32;;;;;;;19.97;17.40;;;;;;;;;;4981760;28;20248;-85
2023/01/21 03:45:02;;;;;;;21.70;18.13;;;;;;;;;;4970550;28;20230;-84
2023/01/21 03:47:36;;;;;;;22.27;17.93;;;;;;;;;;4945807;28;20322;-86
2023/01/21 03:50:08;;;;;;;23.43;20.03;;;;;;;;;;4965246;28;20237;-86
2023/01/21 03:52:34;;;;;;;23.50;19.23;;;;;;;;;;4963259;28;20245;-87
2023/01/21 03:55:00;;;;;;;22.03;18.67;;;;;;;;;;4953795;28;20225;-85
2023/01/21 03:57:30;;;;;;;22.67;19.10;;;;;;;;;;4968696;28;20253;-86
2023/01/21 04:00:00;;;;;;;25.37;18.30;;;;;;;;;;4949427;28;20229;-86
2023/01/21 04:02:28;;;;;;;23.63;20.67;;;;;;;;;;4939485;28;20231;-87
2023/01/21 04:04:54;;;;;;;24.77;20.83;;;;;;;;;;4988368;28;20604;-86
2023/01/21 04:07:22;;;;;;;26.00;21.13;;;;;;;;;;4970897;28;20228;-88
2023/01/21 04:09:48;;;;;;;27.93;21.73;;;;;;;;;;4944123;28;20236;-88
2023/01/21 04:12:14;;;;;;;28.40;22.10;;;;;;;;;;4971078;28;20309;-88
2023/01/21 04:14:42;;;;;;;30.03;23.70;;;;;;;;;;4945132;28;20230;-86
2023/01/21 04:17:07;;;;;;;34.53;24.50;;;;;;;;;;4956955;28;20202;-85
2023/01/21 04:19:35;;;;;;;27.53;22.87;;;;;;;;;;4963694;28;20330;-86
2023/01/21 04:22:01;;;;;;;32.87;23.03;;;;;;;;;;4949676;28;20299;-87
2023/01/21 04:24:26;;;;;;;31.03;24.70;;;;;;;;;;4958563;28;20218;-88
2023/01/21 04:26:52;;;;;;;29.33;22.73;;;;;;;;;;4949171;28;20241;-88
2023/01/21 04:29:22;;;;;;;26.80;22.73;;;;;;;;;;4959365;28;20679;-87
2023/01/21 04:31:48;;;;;;;27.20;22.13;;;;;;;;;;4963587;28;20230;-86
2023/01/21 04:34:15;;;;;;;28.27;22.57;;;;;;;;;;4975469;28;20261;-88
2023/01/21 04:36:48;;;;;;;28.90;23.80;;;;;;;;;;4944091;28;20708;-87
2023/01/21 04:39:13;;;;;;;29.53;22.93;;;;;;;;;;4946565;28;20599;-87
2023/01/21 04:41:41;;;;;;;27.03;22.07;;;;;;;;;;4983534;28;20229;-86
2023/01/21 04:44:07;;;;;;;27.97;23.53;;;;;;;;;;4960270;28;20214;-86
2023/01/21 04:46:34;;;;;;;27.50;22.10;;;;;;;;;;4952303;28;20221;-84
2023/01/21 04:49:00;;;;;;;26.83;22.93;;;;;;;;;;4986527;28;20218;-85
2023/01/21 04:51:25;;;;;;;26.90;22.30;;;;;;;;;;4964443;28;20222;-86
2023/01/21 04:53:51;;;;;;;25.77;21.70;;;;;;;;;;4966953;28;20227;-85
2023/01/21 04:56:19;;;;;;;27.77;22.20;;;;;;;;;;4999957;28;20210;-86
2023/01/21 04:58:44;;;;;;;26.10;22.40;;;;;;;;;;4978086;28;20691;-85
2023/01/21 05:01:12;;;;;;;27.10;22.10;;;;;;;;;;4952335;28;20285;-85
2023/01/21 05:03:40;;;;;;;26.50;21.57;;;;;;;;;;4979399;28;20234;-86
2023/01/21 05:06:05;;;;;;;26.33;21.17;;;;;;;;;;4966938;28;20203;-87
2023/01/21 05:08:31;;;;;;;25.47;21.10;;;;;;;;;;4982785;28;20734;-87
2023/01/21 05:10:56;;;;;;;28.63;21.47;;;;;;;;;;4972662;28;20232;-86
2023/01/21 05:13:24;;;;;;;28.43;21.93;;;;;;;;;;4959011;28;20264;-87
2023/01/21 05:15:50;;;;;;;26.13;21.33;;;;;;;;;;4963738;28;20226;-86
2023/01/21 05:18:17;;;;;;;28.10;21.37;;;;;;;;;;4948668;28;20222;-85
2023/01/21 05:20:47;;;;;;;37.37;23.20;;;;;;;;;;4973332;28;20326;-86
2023/01/21 05:23:15;;;;;;;30.40;23.07;;;;;;;;;;4953112;28;20297;-85
2023/01/21 05:25:41;;;;;;;28.97;23.47;;;;;;;;;;4969836;28;20226;-88
2023/01/21 05:28:08;;;;;;;26.60;21.60;;;;;;;;;;4950695;28;20593;-87
2023/01/21 05:30:34;;;;;;;30.43;21.83;;;;;;;;;;4924174;28;20234;-87
2023/01/21 05:32:59;;;;;;;31.30;23.37;;;;;;;;;;4949668;28;20218;-85
2023/01/21 05:35:25;;;;;;;30.40;22.73;;;;;;;;;;4957071;28;20569;-85
2023/01/21 05:37:52;;;;;;;31.77;22.87;;;;;;;;;;4961342;28;20222;-88
2023/01/21 05:40:22;;;;;;;28.10;21.40;;;;;;;;;;4958438;28;20230;-86
2023/01/21 05:42:50;;;;;;;30.60;22.67;;;;;;;;;;4978067;28;20229;-84
2023/01/21 05:45:16;;;;;;;38.77;24.00;;;;;;;;;;4967695;28;20225;-85
2023/01/21 05:47:44;;;;;;;31.57;22.50;;;;;;;;;;4982720;28;20230;-85
2023/01/21 05:50:09;;;;;;;36.73;23.07;;;;;;;;;;4962225;28;20402;-87
2023/01/21 05:52:35;;;;;;;34.40;22.57;;;;;;;;;;4966231;28;20321;-86
2023/01/21 05:55:01;;;;;;;34.67;23.23;;;;;;;;;;4967610;28;20217;-85
2023/01/21 05:57:32;;;;;;;40.80;25.43;;;;;;;;;;4969807;28;20380;-85
2023/01/21 05:59:58;;;;;;;39.33;23.57;;;;;;;;;;4961774;28;20233;-88
2023/01/21 06:02:23;;;;;;;34.40;23.70;;;;;;;;;;4965184;28;20234;-84
2023/01/21 06:04:51;;;;;;;36.23;24.07;;;;;;;;;;4953400;28;20225;-87
2023/01/21 06:07:19;;;;;;;32.97;22.07;;;;;;;;;;4969789;28;20213;-86
2023/01/21 06:09:45;;;;;;;34.43;22.63;;;;;;;;;;4942454;28;20277;-87
2023/01/21 06:12:10;;;;;;;31.03;21.57;;;;;;;;;;4969033;28;20692;-86
2023/01/21 06:14:36;;;;;;;29.50;21.37;;;;;;;;;;4964600;28;20226;-86
2023/01/21 06:17:01;;;;;;;33.90;22.73;;;;;;;;;;4949412;28;20209;-88
2023/01/21 06:19:27;;;;;;;36.93;23.23;;;;;;;;;;4965308;28;20249;-86
2023/01/21 06:21:52;;;;;;;30.83;21.33;;;;;;;;;;4974658;28;20230;-85
2023/01/21 06:24:21;;;;;;;29.97;21.30;;;;;;;;;;4950692;28;20381;-86
2023/01/21 06:26:47;;;;;;;29.93;21.70;;;;;;;;;;4968320;28;20281;-87
2023/01/21 06:29:17;;;;;;;29.57;20.00;;;;;;;;;;4978000;28;20216;-85
2023/01/21 06:31:48;;;;;;;31.20;21.03;;;;;;;;;;4960450;28;20238;-88
2023/01/21 06:34:14;;;;;;;30.93;21.27;;;;;;;;;;4983897;28;20225;-88
2023/01/21 06:36:42;;;;;;;28.57;19.90;;;;;;;;;;4954501;28;20254;-86
2023/01/21 06:39:10;;;;;;;27.23;20.33;;;;;;;;;;4932482;28;20304;-86
2023/01/21 06:41:37;;;;;;;21.03;17.50;;;;;;;;;;4944316;28;20262;-86
2023/01/21 06:44:05;;;;;;;24.53;18.83;;;;;;;;;;4940520;28;20230;-85
2023/01/21 06:46:31;;;;;;;25.63;19.17;;;;;;;;;;4977720;28;20246;-85
2023/01/21 06:48:58;;;;;;;30.80;21.33;;;;;;;;;;4954035;28;20229;-85
2023/01/21 06:51:27;;;;;;;26.97;20.93;;;;;;;;;;4963397;28;20226;-86
2023/01/21 06:53:52;;;;;;;26.93;20.97;;;;;;;;;;4967842;28;20234;-85
2023/01/21 06:56:21;;;;;;;28.67;21.60;;;;;;;;;;4977083;28;20266;-85
2023/01/21 06:58:47;;;;;;;27.10;20.27;;;;;;;;;;4962487;28;20308;-86
2023/01/21 07:01:16;;;;;;;27.67;19.97;;;;;;;;;;4946845;28;20253;-85
2023/01/21 07:03:43;;;;;;;30.17;20.97;;;;;;;;;;4977804;28;20242;-87
2023/01/21 07:10:49;;;;;;;23.63;19.53;;;;;;;;;;4983577;28;20202;-85
2023/01/21 07:14:06;;;;;;;30.43;21.27;;;;;;;;;;4936109;28;20233;-86
2023/01/21 07:16:46;;;;;;;31.13;21.27;;;;;;;;;;4954989;28;20243;-86
2023/01/21 07:19:12;;;;;;;28.23;21.90;;;;;;;;;;4952535;28;20230;-87
2023/01/21 07:21:40;;;;;;;25.77;21.07;;;;;;;;;;4946675;28;20230;-89
2023/01/21 07:24:08;;;;;;;25.43;20.37;;;;;;;;;;4940581;28;20234;-86
2023/01/21 07:26:36;;;;;;;23.60;19.73;;;;;;;;;;4944137;28;20268;-85
2023/01/21 07:29:05;;;;;;;24.77;21.13;;;;;;;;;;4972785;28;20265;-86
2023/01/21 07:31:33;;;;;;;27.17;19.83;;;;;;;;;;4959746;28;20559;-86
2023/01/21 07:34:03;;;;;;;26.17;21.93;;;;;;;;;;4963231;28;20214;-85
2023/01/21 07:36:33;;;;;;;29.07;21.60;;;;;;;;;;4962479;28;20222;-85
2023/01/21 07:39:04;;;;;;;28.20;21.33;;;;;;;;;;4929674;28;20225;-87
2023/01/21 07:41:31;;;;;;;25.03;19.10;;;;;;;;;;4960050;28;20218;-85
2023/01/21 07:43:59;;;;;;;23.57;20.47;;;;;;;;;;4964821;28;20241;-85
2023/01/21 07:46:25;;;;;;;26.17;21.13;;;;;;;;;;4946395;28;20825;-84
2023/01/21 07:48:51;;;;;;;25.00;20.00;;;;;;;;;;4943992;28;20218;-85
2023/01/21 07:51:20;;;;;;;24.53;20.30;;;;;;;;;;4978110;28;20240;-86
2023/01/21 07:53:50;;;;;;;24.20;20.50;;;;;;;;;;4960658;28;20713;-85
2023/01/21 07:56:19;;;;;;;26.37;21.20;;;;;;;;;;4961506;28;20269;-85
2023/01/21 07:58:45;;;;;;;28.07;19.53;;;;;;;;;;4949546;28;20225;-87
2023/01/21 08:01:16;;;;;;;24.20;19.77;;;;;;;;;;4963758;28;20242;-86
2023/01/21 08:03:42;;;;;;;26.57;20.80;;;;;;;;;;4967742;28;20222;-86
2023/01/21 08:06:07;;;;;;;24.70;21.17;;;;;;;;;;4977387;28;20214;-86
2023/01/21 08:08:37;;;;;;;29.50;20.67;;;;;;;;;;4980527;28;20230;-85
2023/01/21 08:11:03;;;;;;;26.53;21.13;;;;;;;;;;4974981;28;20229;-84
2023/01/21 08:13:29;;;;;;;24.67;21.97;;;;;;;;;;4936665;28;20279;-85
2023/01/21 08:15:57;;;;;;;25.93;20.97;;;;;;;;;;4933246;28;20285;-86
2023/01/21 08:18:25;;;;;;;27.50;21.77;;;;;;;;;;4935756;28;20721;-85
2023/01/21 08:20:55;;;;;;;27.17;22.47;;;;;;;;;;4953764;28;20226;-84
2023/01/21 08:23:21;;;;;;;25.50;21.93;;;;;;;;;;4934773;28;21582;-84
2023/01/21 08:25:56;;;;;;;30.83;25.20;;;;;;;;;;4970261;28;20253;-86
2023/01/21 08:28:40;;;;;;;26.17;22.70;;;;;;;;;;4934810;28;20865;-85
2023/01/21 08:31:10;;;;;;;28.60;24.67;;;;;;;;;;4923402;28;20244;-86
2023/01/21 08:33:39;;;;;;;29.80;24.70;;;;;;;;;;4947819;28;20254;-84
2023/01/21 08:36:07;;;;;;;25.47;22.10;;;;;;;;;;4941339;28;20225;-86
2023/01/21 08:38:38;;;;;;;27.70;22.07;;;;;;;;;;4944398;28;20226;-87
2023/01/21 08:41:05;;;;;;;26.63;21.47;;;;;;;;;;4957785;28;21722;-85
2023/01/21 08:43:33;;;;;;;24.87;22.23;;;;;;;;;;4968366;28;20706;-86
2023/01/21 08:46:00;;;;;;;29.93;21.80;;;;;;;;;;4923631;28;20244;-85
2023/01/21 08:48:28;;;;;;;25.17;20.47;;;;;;;;;;4955580;28;20245;-87
2023/01/21 08:50:57;;;;;;;26.70;21.30;;;;;;;;;;4950639;28;20226;-85
2023/01/21 08:53:23;;;;;;;23.97;20.93;;;;;;;;;;4953237;28;20245;-86
2023/01/21 08:55:48;;;;;;;26.97;22.57;;;;;;;;;;4943915;28;20218;-86
2023/01/21 08:58:14;;;;;;;24.63;21.20;;;;;;;;;;4969349;28;20265;-86
2023/01/21 09:00:40;;;;;;;26.77;21.47;;;;;;;;;;4939084;28;20688;-84
2023/01/21 09:03:12;;;;;;;29.00;22.27;;;;;;;;;;4941420;28;20226;-85
2023/01/21 09:05:42;;;;;;;26.60;22.43;;;;;;;;;;4956991;28;20223;-84
2023/01/21 09:08:08;;;;;;;28.53;23.90;;;;;;;;;;4965185;28;20210;-87
2023/01/21 09:13:20;;;;;;;26.77;21.60;;;;;;;;;;4955810;28;20242;-85
2023/01/21 09:15:46;;;;;;;27.10;22.57;;;;;;;;;;4929595;28;20230;-87
2023/01/21 09:18:14;;;;;;;29.13;21.17;;;;;;;;;;4954164;28;20327;-85
2023/01/21 09:20:42;;;;;;;26.97;21.70;;;;;;;;;;4928294;28;20218;-85
2023/01/21 09:23:24;;;;;;;26.70;22.43;;;;;;;;;;4942209;28;20329;-86
2023/01/21 09:26:16;;;;;;;26.73;21.90;;;;;;;;;;4973411;28;20237;-86
2023/01/21 09:28:46;;;;;;;26.43;21.13;;;;;;;;;;4944549;28;21084;-84
2023/01/21 09:31:16;;;;;;;28.97;22.00;;;;;;;;;;4962869;28;20250;-85
2023/01/21 09:33:47;;;;;;;24.00;19.90;;;;;;;;;;4959061;28;20229;-86
2023/01/21 09:36:20;;;;;;;25.43;21.43;;;;;;;;;;4982566;28;20214;-84
2023/01/21 09:38:48;;;;;;;27.20;21.23;;;;;;;;;;4964853;28;20250;-84
2023/01/21 09:41:34;;;;;;;30.97;21.63;;;;;;;;;;4927140;28;20245;-85
2023/01/21 09:44:15;;;;;;;26.47;20.63;;;;;;;;;;4935488;28;20249;-87
2023/01/21 09:46:45;;;;;;;25.50;21.20;;;;;;;;;;4976362;28;20238;-83
2023/01/21 09:49:16;;;;;;;25.87;21.20;;;;;;;;;;4984771;28;20238;-84
2023/01/21 09:51:58;;;;;;;25.60;20.60;;;;;;;;;;4962805;28;20257;-84
2023/01/21 09:54:26;;;;;;;25.97;19.83;;;;;;;;;;4963632;28;20498;-85
2023/01/21 09:57:44;;;;;;;24.53;20.00;;;;;;;;;;4943013;28;20218;-85
2023/01/21 10:00:30;;;;;;;31.03;20.37;;;;;;;;;;4956983;28;20250;-87
2023/01/21 10:03:20;;;;;;;26.27;20.27;;;;;;;;;;4953217;28;20236;-86
2023/01/21 10:06:13;;;;;;;26.90;19.80;;;;;;;;;;4959359;28;20321;-85
2023/01/21 10:09:07;;;;;;;24.90;19.10;;;;;;;;;;4962549;28;20230;-85
2023/01/21 10:12:02;;;;;;;23.97;19.07;;;;;;;;;;4962201;28;20236;-85
2023/01/21 10:14:36;;;;;;;26.53;20.27;;;;;;;;;;4974145;28;20253;-86
2023/01/21 10:17:14;;;;;;;26.60;19.97;;;;;;;;;;4991313;28;20906;-88
2023/01/21 10:19:50;;;;;;;23.93;19.50;;;;;;;;;;4960086;28;20225;-84
2023/01/21 10:22:19;;;;;;;27.37;22.23;;;;;;;;;;4979929;28;20598;-87
2023/01/21 10:24:52;;;;;;;26.40;20.47;;;;;;;;;;4941695;28;20223;-85
2023/01/21 10:27:21;;;;;;;23.83;20.50;;;;;;;;;;4958347;28;20246;-78
2023/01/21 10:29:52;;;;;;;23.50;20.13;;;;;;;;;;4953902;28;20962;-79
2023/01/21 10:32:21;;;;;;;23.93;19.93;;;;;;;;;;4978293;28;20231;-79
2023/01/21 10:34:50;;;;;;;27.17;20.40;;;;;;;;;;4956246;28;20242;-80
2023/01/21 10:37:43;;;;;;;22.90;18.80;;;;;;;;;;4959788;28;20222;-80
2023/01/21 10:40:16;;;;;;;23.83;19.73;;;;;;;;;;4955744;28;20268;-82
2023/01/21 10:43:31;;;;;;;22.90;19.30;;;;;;;;;;4957040;28;20234;-81
2023/01/21 10:46:26;;;;;;;26.20;17.83;;;;;;;;;;4962650;28;20237;-79
2023/01/21 10:48:56;;;;;;;23.30;18.53;;;;;;;;;;4959716;28;20230;-80
2023/01/21 10:51:36;;;;;;;22.97;18.43;;;;;;;;;;4965304;28;20316;-80
2023/01/21 10:54:10;;;;;;;20.17;17.97;;;;;;;;;;4965371;28;20268;-82
2023/01/21 10:57:00;;;;;;;23.93;18.60;;;;;;;;;;4935368;28;20249;-80
2023/01/21 10:59:27;;;;;;;24.00;19.20;;;;;;;;;;4958018;28;20343;-81
2023/01/21 11:02:08;;;;;;;22.93;18.20;;;;;;;;;;4943311;28;20218;-80
2023/01/21 11:04:35;;;;;;;22.37;17.63;;;;;;;;;;4960506;28;20595;-81
2023/01/21 11:07:04;;;;;;;26.10;19.30;;;;;;;;;;4949074;28;20214;-81
2023/01/21 11:09:36;;;;;;;21.67;18.23;;;;;;;;;;4944421;28;20245;-80
2023/01/21 11:12:02;;;;;;;23.73;19.23;;;;;;;;;;4970085;28;20230;-81
2023/01/21 11:14:27;;;;;;;20.07;17.87;;;;;;;;;;4943003;28;20277;-81
2023/01/21 11:16:55;;;;;;;21.50;17.17;;;;;;;;;;4954612;28;20225;-81
2023/01/21 11:19:25;;;;;;;21.07;18.43;;;;;;;;;;4960635;28;20218;-82
2023/01/21 11:22:23;;;;;;;20.37;17.63;;;;;;;;;;4952044;28;21586;-81
2023/01/21 11:24:51;;;;;;;21.17;16.73;;;;;;;;;;4964655;28;21176;-80
2023/01/21 11:27:36;;;;;;;20.90;16.60;;;;;;;;;;4934707;28;20214;-81
2023/01/21 11:30:05;;;;;;;17.37;15.07;;;;;;;;;;4950813;28;21262;-79
2023/01/21 11:32:31;;;;;;;19.17;15.53;;;;;;;;;;4953898;28;20226;-82
2023/01/21 11:35:02;;;;;;;20.10;16.30;;;;;;;;;;4954446;28;20233;-83
2023/01/21 11:37:28;;;;;;;18.07;15.30;;;;;;;;;;4967524;28;20234;-82
2023/01/21 11:40:18;;;;;;;19.40;15.83;;;;;;;;;;4930648;28;20413;-80
2023/01/21 11:42:51;;;;;;;15.90;13.57;;;;;;;;;;4945721;28;20234;-81
2023/01/21 11:45:32;;;;;;;15.30;13.70;;;;;;;;;;4938913;28;20230;-82
2023/01/21 11:47:58;;;;;;;14.47;12.97;;;;;;;;;;4947190;28;20633;-79
2023/01/21 11:50:33;;;;;;;15.30;13.70;;;;;;;;;;4971790;28;20237;-79
2023/01/21 11:53:05;;;;;;;16.70;14.17;;;;;;;;;;4936498;28;20592;-81
2023/01/21 11:55:31;;;;;;;16.70;14.60;;;;;;;;;;4967491;28;20301;-82
2023/01/21 11:57:59;;;;;;;15.20;13.63;;;;;;;;;;4953105;28;20226;-81
2023/01/21 12:00:28;;;;;;;16.93;14.57;;;;;;;;;;4951082;28;20300;-82
2023/01/21 12:03:03;;;;;;;17.87;14.03;;;;;;;;;;4952045;28;20226;-82
2023/01/21 12:05:33;;;;;;;14.87;13.27;;;;;;;;;;4943050;28;20234;-84
2023/01/21 12:07:59;;;;;;;15.33;13.73;;;;;;;;;;4954766;28;20309;-83
2023/01/21 12:10:28;;;;;;;15.47;13.77;;;;;;;;;;4939348;28;20704;-82
2023/01/21 12:13:06;;;;;;;15.53;13.73;;;;;;;;;;4969353;28;20290;-80
2023/01/21 12:15:38;;;;;;;17.13;13.13;;;;;;;;;;4984237;28;21512;-81
2023/01/21 12:18:18;;;;;;;18.27;14.73;;;;;;;;;;4964067;28;20222;-83
2023/01/21 12:20:43;;;;;;;15.47;13.50;;;;;;;;;;4969551;28;20230;-81
2023/01/21 12:23:16;;;;;;;16.93;13.87;;;;;;;;;;4969822;28;20249;-82
2023/01/21 12:25:43;;;;;;;15.80;14.10;;;;;;;;;;4970041;28;20230;-80
2023/01/21 12:28:36;;;;;;;14.87;13.17;;;;;;;;;;4953573;28;20218;-83
2023/01/21 12:31:13;;;;;;;15.80;14.03;;;;;;;;;;4967818;28;20229;-83
2023/01/21 12:33:47;;;;;;;17.23;13.63;;;;;;;;;;4939521;28;20233;-80
2023/01/21 12:36:21;;;;;;;15.67;14.03;;;;;;;;;;4936014;28;20715;-81
2023/01/21 12:39:22;;;;;;;17.40;13.33;;;;;;;;;;4935278;28;20270;-80
2023/01/21 12:42:12;;;;;;;18.63;14.80;;;;;;;;;;4959639;28;20228;-83
2023/01/21 12:44:59;;;;;;;16.63;13.70;;;;;;;;;;4938202;28;20244;-83
2023/01/21 12:47:33;;;;;;;17.10;14.20;;;;;;;;;;4928002;28;20229;-83
2023/01/21 12:50:03;;;;;;;16.73;14.43;;;;;;;;;;4975856;28;20324;-83
2023/01/21 12:52:36;;;;;;;17.00;13.33;;;;;;;;;;4965929;28;20270;-82
2023/01/21 12:55:23;;;;;;;15.10;13.60;;;;;;;;;;4988178;28;20255;-81
2023/01/21 12:57:57;;;;;;;15.43;13.80;;;;;;;;;;4963034;28;20226;-83
2023/01/21 13:00:29;;;;;;;21.30;14.40;;;;;;;;;;4977338;28;20318;-82
2023/01/21 13:02:57;;;;;;;17.57;15.47;;;;;;;;;;4957865;28;20290;-83
2023/01/21 13:05:35;;;;;;;18.50;15.07;;;;;;;;;;4962656;28;20232;-83
2023/01/21 13:08:34;;;;;;;17.80;15.17;;;;;;;;;;4982967;28;20221;-83
2023/01/21 13:11:05;;;;;;;18.27;14.10;;;;;;;;;;4979062;28;20221;-81
2023/01/21 13:13:40;;;;;;;16.37;14.63;;;;;;;;;;4981563;28;20234;-81
2023/01/21 13:16:06;;;;;;;19.33;13.87;;;;;;;;;;4976098;28;20210;-81
2023/01/21 13:18:48;;;;;;;17.10;13.43;;;;;;;;;;4953723;28;20760;-82
2023/01/21 13:21:26;;;;;;;15.37;13.57;;;;;;;;;;4977103;28;20227;-81
2023/01/21 13:24:10;;;;;;;14.50;13.00;;;;;;;;;;4961460;28;20228;-81
2023/01/21 13:26:54;;;;;;;15.70;12.97;;;;;;;;;;4973427;28;20218;-84
2023/01/21 13:29:50;;;;;;;19.17;13.10;;;;;;;;;;4981366;28;20233;-83
2023/01/21 13:32:21;;;;;;;16.13;13.43;;;;;;;;;;4962073;28;20229;-83
2023/01/21 13:35:12;;;;;;;19.00;14.57;;;;;;;;;;4987880;28;20234;-83
2023/01/21 13:37:53;;;;;;;16.93;13.03;;;;;;;;;;4976036;28;20691;-83
2023/01/21 13:40:36;;;;;;;16.57;13.43;;;;;;;;;;4974416;28;20234;-82
2023/01/21 13:43:17;;;;;;;14.30;12.80;;;;;;;;;;4951705;28;20222;-82
2023/01/21 13:46:04;;;;;;;12.50;11.20;;;;;;;;;;4958980;28;20258;-82
2023/01/21 13:48:45;;;;;;;17.73;12.50;;;;;;;;;;4966754;28;20237;-81
2023/01/21 13:51:17;;;;;;;14.93;12.77;;;;;;;;;;4971825;28;20230;-81
2023/01/21 13:54:22;;;;;;;13.77;12.00;;;;;;;;;;4990099;28;20238;-82
2023/01/21 13:56:59;;;;;;;16.47;14.20;;;;;;;;;;4942293;28;20290;-80
2023/01/21 13:59:32;;;;;;;16.60;13.17;;;;;;;;;;4956864;28;20285;-82
2023/01/21 14:02:23;;;;;;;18.50;14.23;;;;;;;;;;4977249;28;20234;-82
2023/01/21 14:05:20;;;;;;;17.93;14.97;;;;;;;;;;4975541;28;20289;-81
2023/01/21 14:07:52;;;;;;;18.27;15.23;;;;;;;;;;4950438;28;20227;-83
2023/01/21 14:10:24;;;;;;;17.63;14.33;;;;;;;;;;4968218;28;20226;-80
2023/01/21 14:13:06;;;;;;;19.97;15.97;;;;;;;;;;4985264;28;20238;-79
2023/01/21 14:15:44;;;;;;;18.03;16.00;;;;;;;;;;4973195;28;20234;-79
2023/01/21 14:18:19;;;;;;;18.40;16.43;;;;;;;;;;5011374;28;20218;-80
2023/01/21 14:21:03;;;;;;;18.83;16.87;;;;;;;;;;4981309;28;20248;-81
2023/01/21 14:24:07;;;;;;;18.67;16.23;;;;;;;;;;4970863;28;20252;-81
2023/01/21 14:26:42;;;;;;;19.27;16.80;;;;;;;;;;4974691;28;20347;-80
2023/01/21 14:29:31;;;;;;;21.10;17.17;;;;;;;;;;4987739;28;20324;-79
2023/01/21 14:32:02;;;;;;;17.93;15.30;;;;;;;;;;4970653;28;20230;-80
2023/01/21 14:34:51;;;;;;;20.37;17.17;;;;;;;;;;4943537;28;20229;-84
2023/01/21 14:37:33;;;;;;;20.83;17.27;;;;;;;;;;4960074;28;20232;-81
2023/01/21 14:39:59;;;;;;;21.30;17.63;;;;;;;;;;4938147;28;20227;-82
2023/01/21 14:42:39;;;;;;;18.67;16.67;;;;;;;;;;4968189;28;20233;-78
2023/01/21 14:45:06;;;;;;;20.93;16.87;;;;;;;;;;4969799;28;20270;-82
2023/01/21 14:47:38;;;;;;;22.70;17.53;;;;;;;;;;4964887;28;20229;-83
2023/01/21 14:50:05;;;;;;;19.37;16.83;;;;;;;;;;4978945;28;20221;-82
2023/01/21 14:52:43;;;;;;;19.87;17.30;;;;;;;;;;4968126;28;20234;-80
2023/01/21 14:55:30;;;;;;;19.47;15.70;;;;;;;;;;4965237;28;20238;-81